Time;durP1;ratioP1;P1;durP2;ratioP2;P2;SDS_P1;SDS_P2;PMS_P1;PMS_P2;Temp;Humidity;BMP_temperature;BMP_pressure;BME280_temperature;BME280_humidity;BME280_pressure;Samples;Min_cycle;Max_cycle;Signal;HPM_P1;HPM_P2
2021/08/16 00:01:16;;;;;;;6.07;3.30;;;;;;;17.62;88.45;100011.20;124836;1093;64457;-79
2021/08/16 00:03:43;;;;;;;5.73;3.50;;;;;;;17.67;88.48;100019.34;124888;1092;64263;-79
2021/08/16 00:06:10;;;;;;;7.20;3.60;;;;;;;17.70;88.64;100018.85;124846;1093;64291;-81
2021/08/16 00:08:37;;;;;;;7.07;2.83;;;;;;;17.69;88.60;100012.68;124856;1092;64325;-78
2021/08/16 00:11:04;;;;;;;6.10;2.70;;;;;;;17.68;88.44;100005.70;124854;1093;64316;-78
2021/08/16 00:13:31;;;;;;;9.03;3.20;;;;;;;17.66;88.67;100005.13;124898;1092;64647;-79
2021/08/16 00:15:59;;;;;;;6.70;3.20;;;;;;;17.63;88.86;99999.41;124876;1093;64346;-78
2021/08/16 00:18:26;;;;;;;7.60;3.07;;;;;;;17.61;88.55;99994.28;124773;1091;64301;-79
2021/08/16 00:20:53;;;;;;;5.70;2.80;;;;;;;17.61;88.47;99988.11;124844;1093;64215;-79
2021/08/16 00:23:20;;;;;;;9.70;2.95;;;;;;;17.61;88.64;99972.02;124671;1093;64426;-79
2021/08/16 00:25:47;;;;;;;11.03;3.80;;;;;;;17.59;88.19;99974.13;124819;1093;64710;-78
2021/08/16 00:28:14;;;;;;;6.57;3.07;;;;;;;17.57;88.03;99968.98;124902;1093;64867;-78
2021/08/16 00:30:42;;;;;;;5.93;2.97;;;;;;;17.53;88.10;99968.67;124814;1093;64307;-78
2021/08/16 00:33:09;;;;;;;4.93;2.77;;;;;;;17.49;88.86;99964.84;124821;1093;64304;-78
2021/08/16 00:35:36;;;;;;;6.43;2.53;;;;;;;17.44;88.67;99966.59;124777;1092;64304;-78
2021/08/16 00:38:04;;;;;;;6.13;3.00;;;;;;;17.37;89.04;99964.05;124754;1092;64444;-78
2021/08/16 00:40:31;;;;;;;10.77;3.20;;;;;;;17.31;89.09;99965.80;124773;1093;64285;-78
2021/08/16 00:42:58;;;;;;;7.37;2.97;;;;;;;17.29;89.27;99964.42;124884;1093;64343;-78
2021/08/16 00:45:26;;;;;;;6.03;3.33;;;;;;;17.24;89.02;99956.28;124852;1093;64236;-78
2021/08/16 00:47:53;;;;;;;6.00;3.40;;;;;;;17.20;89.08;99953.25;124903;1092;64367;-78
2021/08/16 00:50:21;;;;;;;8.27;3.13;;;;;;;17.18;89.22;99947.31;124853;1093;64342;-76
2021/08/16 00:52:49;;;;;;;4.90;2.63;;;;;;;17.17;89.48;99948.38;124819;1092;64720;-78
2021/08/16 00:55:17;;;;;;;6.70;2.73;;;;;;;17.15;90.16;99960.36;124980;1093;64304;-78
2021/08/16 00:57:44;;;;;;;6.50;2.67;;;;;;;17.10;91.24;99961.08;124801;1093;64255;-78
2021/08/16 01:00:12;;;;;;;6.60;2.67;;;;;;;17.05;90.34;99963.66;124831;1093;64255;-78
2021/08/16 01:02:41;;;;;;;5.85;3.20;;;;;;;17.04;90.47;99968.22;124825;1093;64861;-79
2021/08/16 01:05:12;;;;;;;6.37;2.83;;;;;;;17.04;90.44;99978.93;124883;1094;64304;-78
2021/08/16 01:07:47;;;;;;;4.63;2.27;;;;;;;17.03;90.69;99982.64;124954;1093;64375;-79
2021/08/16 01:10:17;;;;;;;5.67;3.27;;;;;;;16.99;90.69;100008.28;124864;1093;64307;-78
2021/08/16 01:12:44;;;;;;;4.50;2.27;;;;;;;16.94;92.72;100026.09;124978;1091;64249;-78
2021/08/16 01:15:14;;;;;;;7.83;2.93;;;;;;;16.90;92.21;100009.69;124858;1092;64340;-78
2021/08/16 01:17:42;;;;;;;7.27;2.93;;;;;;;16.89;92.65;100021.44;124884;1093;64317;-78
2021/08/16 01:20:12;;;;;;;8.47;3.63;;;;;;;16.90;91.98;100020.41;124884;1093;64313;-79
2021/08/16 01:22:39;;;;;;;5.80;2.80;;;;;;;16.91;91.89;100016.66;124956;1092;64310;-79
2021/08/16 01:25:08;;;;;;;7.40;3.17;;;;;;;16.93;91.68;100013.76;124836;1092;64211;-79
2021/08/16 01:27:36;;;;;;;5.57;2.93;;;;;;;16.93;91.24;100011.89;124975;1093;64400;-79
2021/08/16 01:30:13;;;;;;;7.20;2.90;;;;;;;16.95;91.26;100015.15;124839;1093;64329;-78
2021/08/16 01:32:41;;;;;;;6.97;3.37;;;;;;;16.95;91.30;100017.02;124868;1093;64737;-77
2021/08/16 01:35:09;;;;;;;4.73;2.77;;;;;;;16.97;91.30;100021.09;124960;1093;64285;-78
2021/08/16 01:37:37;;;;;;;9.00;3.70;;;;;;;16.98;92.17;100025.41;124823;1093;64325;-78
2021/08/16 01:40:11;;;;;;;6.30;3.17;;;;;;;17.00;92.00;100020.64;124770;1093;64464;-78
2021/08/16 01:42:38;;;;;;;5.93;3.28;;;;;;;17.03;91.67;100024.70;124884;1092;64323;-78
2021/08/16 01:45:07;;;;;;;8.50;3.37;;;;;;;17.04;91.69;100029.84;124794;1092;64571;-78
2021/08/16 01:47:34;;;;;;;7.93;3.37;;;;;;;17.06;91.91;100027.72;125065;1093;64217;-79
2021/08/16 01:50:01;;;;;;;7.53;3.83;;;;;;;17.08;91.71;100028.30;124795;1092;64308;-79
2021/08/16 01:52:28;;;;;;;8.10;3.10;;;;;;;17.08;91.90;100028.30;124814;1093;64304;-78
2021/08/16 01:54:55;;;;;;;5.97;3.17;;;;;;;17.11;91.86;100038.56;124783;1093;64389;-78
2021/08/16 01:57:23;;;;;;;7.30;2.77;;;;;;;17.13;91.57;100032.98;124819;1093;64397;-77
2021/08/16 01:59:50;;;;;;;5.47;2.77;;;;;;;17.14;92.27;100037.27;124718;1093;64211;-78
2021/08/16 02:02:17;;;;;;;6.67;3.23;;;;;;;17.14;92.40;100036.47;125079;1092;64230;-79
2021/08/16 02:04:47;;;;;;;8.70;3.13;;;;;;;17.15;92.45;100033.56;124882;1092;64435;-78
2021/08/16 02:07:14;;;;;;;7.83;3.17;;;;;;;17.15;92.52;100036.24;124854;1093;64473;-79
2021/08/16 02:09:42;;;;;;;8.07;3.60;;;;;;;17.14;92.61;100041.83;124827;1093;64380;-78
2021/08/16 02:12:09;;;;;;;5.23;2.93;;;;;;;17.14;93.03;100031.11;124875;1093;64307;-78
2021/08/16 02:14:37;;;;;;;6.27;3.03;;;;;;;17.12;92.96;100032.14;124810;1093;64379;-79
2021/08/16 02:17:04;;;;;;;6.83;3.03;;;;;;;17.15;92.96;100035.41;124811;1094;64320;-79
2021/08/16 02:19:31;;;;;;;7.00;2.97;;;;;;;17.12;93.00;100024.11;124939;1093;64276;-79
2021/08/16 02:21:58;;;;;;;8.60;3.03;;;;;;;17.11;92.76;100033.20;124984;1093;64744;-79
2021/08/16 02:24:25;;;;;;;7.10;3.13;;;;;;;17.10;92.96;100025.39;124893;1093;64286;-79
2021/08/16 02:26:52;;;;;;;6.90;2.80;;;;;;;17.06;92.28;100030.39;124805;1093;64326;-78
2021/08/16 02:29:19;;;;;;;5.87;2.47;;;;;;;17.05;92.80;100027.97;124832;1093;64283;-78
2021/08/16 02:31:46;;;;;;;8.63;2.93;;;;;;;17.00;92.55;100028.68;124883;1093;64291;-79
2021/08/16 02:34:13;;;;;;;7.33;3.13;;;;;;;16.97;92.38;100023.77;124733;1092;64861;-78
2021/08/16 02:36:40;;;;;;;7.40;3.10;;;;;;;16.94;92.16;100026.93;124877;1093;64380;-79
2021/08/16 02:39:07;;;;;;;7.40;2.97;;;;;;;16.90;92.52;100036.48;124815;1093;64211;-79
2021/08/16 02:41:34;;;;;;;6.53;2.87;;;;;;;16.88;92.73;100022.50;124790;1093;64437;-79
2021/08/16 02:44:01;;;;;;;5.53;2.73;;;;;;;16.86;92.41;100032.63;124840;1093;64288;-79
2021/08/16 02:46:28;;;;;;;4.80;3.50;;;;;;;16.87;92.94;100026.21;124823;1093;64282;-80
2021/08/16 02:48:56;;;;;;;10.03;3.30;;;;;;;16.87;92.58;100035.09;124853;1092;64301;-78
2021/08/16 02:51:23;;;;;;;5.67;3.60;;;;;;;16.89;93.20;100038.34;124874;1093;64259;-79
2021/08/16 02:53:49;;;;;;;7.27;3.00;;;;;;;16.91;92.49;100038.09;124938;1093;64420;-79
2021/08/16 02:56:16;;;;;;;6.90;2.97;;;;;;;16.93;93.25;100032.52;124853;1091;64320;-79
2021/08/16 02:58:43;;;;;;;5.75;3.10;;;;;;;16.91;92.99;100032.73;124865;1093;64352;-80
2021/08/16 03:01:10;;;;;;;5.70;3.10;;;;;;;16.90;93.11;100037.28;124846;1093;64296;-79
2021/08/16 03:03:37;;;;;;;6.27;3.13;;;;;;;16.91;92.96;100035.41;124817;1093;64313;-79
2021/08/16 03:06:04;;;;;;;8.13;2.80;;;;;;;16.92;92.25;100034.38;124868;1091;64316;-79
2021/08/16 03:08:36;;;;;;;8.30;3.27;;;;;;;16.93;91.98;100037.88;124831;1093;64293;-78
2021/08/16 03:11:04;;;;;;;7.40;2.73;;;;;;;16.94;91.58;100032.29;124846;1092;64237;-80
2021/08/16 03:13:33;;;;;;;4.70;2.65;;;;;;;16.95;91.40;100036.58;124850;1093;64263;-79
2021/08/16 03:16:01;;;;;;;5.40;3.47;;;;;;;16.93;91.24;100025.28;124823;1093;64243;-78
2021/08/16 03:18:28;;;;;;;8.27;3.70;;;;;;;16.93;90.84;100030.64;124833;1093;65503;-78
2021/08/16 03:20:55;;;;;;;8.20;3.43;;;;;;;16.90;90.58;100025.77;124815;1092;64321;-78
2021/08/16 03:23:22;;;;;;;7.97;4.10;;;;;;;16.88;90.44;100046.61;124870;1092;64291;-79
2021/08/16 03:25:49;;;;;;;4.70;3.00;;;;;;;16.82;90.23;100036.82;124822;1092;64268;-79
2021/08/16 03:28:16;;;;;;;6.97;3.10;;;;;;;16.77;89.60;100028.65;124819;1093;64381;-80
2021/08/16 03:30:47;;;;;;;10.27;3.47;;;;;;;16.68;88.38;100028.14;124870;1093;64283;-80
2021/08/16 03:33:15;;;;;;;8.80;3.30;;;;;;;16.59;88.36;100038.38;125005;1093;64368;-79
2021/08/16 03:35:42;;;;;;;7.50;2.87;;;;;;;16.51;86.95;100036.04;124976;1092;64291;-79
2021/08/16 03:38:10;;;;;;;6.73;2.80;;;;;;;16.46;86.46;100019.86;124987;1093;64316;-79
2021/08/16 03:40:38;;;;;;;6.27;2.10;;;;;;;16.38;86.40;100023.67;124865;1092;64368;-81
2021/08/16 03:43:05;;;;;;;6.77;2.37;;;;;;;16.29;85.95;100025.88;124855;1093;64322;-79
2021/08/16 03:45:32;;;;;;;6.67;2.30;;;;;;;16.24;86.00;100028.42;124856;1093;64295;-79
2021/08/16 03:47:59;;;;;;;4.30;2.27;;;;;;;16.19;85.67;100035.50;124802;1093;64291;-78
2021/08/16 03:50:26;;;;;;;5.37;2.43;;;;;;;16.12;86.09;100030.24;124905;1093;64300;-79
2021/08/16 03:52:53;;;;;;;5.40;2.83;;;;;;;16.04;86.39;100028.70;124811;1093;64285;-81
2021/08/16 03:55:20;;;;;;;5.07;2.97;;;;;;;15.98;85.93;100023.44;124894;1092;64314;-79
2021/08/16 03:57:47;;;;;;;3.83;1.97;;;;;;;15.92;86.01;100019.84;124943;1093;64368;-81
2021/08/16 04:00:16;;;;;;;4.73;2.50;;;;;;;15.86;86.31;100016.20;124866;1093;64310;-80
2021/08/16 04:02:45;;;;;;;10.70;2.87;;;;;;;15.81;86.67;100016.07;125005;1093;64292;-78
2021/08/16 04:05:13;;;;;;;4.93;2.93;;;;;;;15.77;86.26;100025.58;124977;1093;64307;-78
2021/08/16 04:07:44;;;;;;;9.17;2.73;;;;;;;15.73;86.26;100008.36;124923;1092;64310;-79
2021/08/16 04:10:13;;;;;;;7.47;2.03;;;;;;;15.67;86.67;100007.36;124913;1093;64313;-80
2021/08/16 04:12:41;;;;;;;6.53;2.50;;;;;;;15.64;86.46;100009.66;125088;1092;64301;-79
2021/08/16 04:15:12;;;;;;;5.37;2.47;;;;;;;15.61;86.32;100007.45;125042;1093;64211;-79
2021/08/16 04:17:39;;;;;;;5.47;2.40;;;;;;;15.61;86.16;100010.12;125527;1093;65044;-79
2021/08/16 04:20:09;;;;;;;6.73;3.03;;;;;;;15.58;86.55;100010.58;125307;1093;64379;-79
2021/08/16 04:22:36;;;;;;;3.75;2.55;;;;;;;15.57;86.50;100024.97;125118;1093;64296;-78
2021/08/16 04:25:06;;;;;;;5.40;3.20;;;;;;;15.56;86.37;100023.36;124988;1093;64287;-81
2021/08/16 04:27:34;;;;;;;7.40;3.40;;;;;;;15.53;86.78;100024.59;125004;1093;64234;-79
2021/08/16 04:30:01;;;;;;;5.43;3.00;;;;;;;15.52;87.24;100024.84;124967;1092;64381;-79
2021/08/16 04:32:28;;;;;;;7.73;3.43;;;;;;;15.50;87.18;100025.86;124958;1093;64404;-79
2021/08/16 04:34:55;;;;;;;5.93;3.43;;;;;;;15.49;87.31;100023.41;124937;1092;64265;-79
2021/08/16 04:37:22;;;;;;;5.23;3.03;;;;;;;15.49;87.08;100021.57;124929;1093;64307;-80
2021/08/16 04:39:49;;;;;;;4.70;2.97;;;;;;;15.52;86.98;100008.80;124918;1093;64748;-81
2021/08/16 04:42:16;;;;;;;6.20;3.40;;;;;;;15.52;87.31;100012.28;124977;1093;64272;-79
2021/08/16 04:44:44;;;;;;;7.00;3.40;;;;;;;15.51;86.94;100007.96;125071;1093;64823;-79
2021/08/16 04:47:11;;;;;;;6.67;3.60;;;;;;;15.52;87.02;100012.28;124991;1093;64371;-78
2021/08/16 04:49:38;;;;;;;3.97;3.20;;;;;;;15.54;87.40;100014.74;125079;1093;64368;-79
2021/08/16 04:52:06;;;;;;;6.47;3.07;;;;;;;15.58;87.43;100013.25;125078;1093;64336;-79
2021/08/16 04:54:33;;;;;;;3.87;2.70;;;;;;;15.62;86.87;100009.06;125430;1092;64403;-79
2021/08/16 04:57:00;;;;;;;7.57;3.33;;;;;;;15.66;86.78;100012.92;125174;1093;64262;-78
2021/08/16 04:59:27;;;;;;;10.77;3.77;;;;;;;15.68;86.84;100005.48;125411;1092;64391;-80
2021/08/16 05:01:55;;;;;;;6.97;3.30;;;;;;;15.73;86.74;100021.73;125185;1092;64398;-81
2021/08/16 05:04:22;;;;;;;6.23;3.10;;;;;;;15.75;86.34;100033.02;125263;1092;64285;-79
2021/08/16 05:06:49;;;;;;;7.33;3.80;;;;;;;15.79;86.51;100014.64;125016;1093;64301;-80
2021/08/16 05:09:16;;;;;;;9.70;4.23;;;;;;;15.81;86.55;100015.23;125123;1093;64474;-78
2021/08/16 05:11:43;;;;;;;7.23;3.90;;;;;;;15.83;85.66;100016.66;125334;1092;64272;-79
2021/08/16 05:14:10;;;;;;;11.53;3.73;;;;;;;15.87;85.91;100019.67;125087;1092;64304;-79
2021/08/16 05:16:37;;;;;;;6.33;3.60;;;;;;;15.88;85.28;100016.78;124994;1092;64316;-79
2021/08/16 05:19:05;;;;;;;6.70;3.20;;;;;;;15.89;84.94;99999.68;124934;1093;64271;-79
2021/08/16 05:21:32;;;;;;;6.90;3.57;;;;;;;15.93;85.44;100004.59;124956;1093;64335;-79
2021/08/16 05:23:59;;;;;;;10.03;4.23;;;;;;;15.94;85.43;100001.70;124939;1093;64301;-79
2021/08/16 05:26:26;;;;;;;9.67;3.83;;;;;;;15.98;85.58;100004.72;124977;1093;64261;-79
2021/08/16 05:28:53;;;;;;;7.83;4.10;;;;;;;16.06;85.08;100018.58;125065;1092;64307;-80
2021/08/16 05:31:20;;;;;;;7.80;3.97;;;;;;;16.12;84.90;100019.55;125105;1092;64211;-80
2021/08/16 05:33:47;;;;;;;6.50;3.57;;;;;;;16.17;84.48;100021.53;125027;1093;64384;-79
2021/08/16 05:36:14;;;;;;;6.13;3.73;;;;;;;16.23;84.03;100016.08;124988;1092;64282;-79
2021/08/16 05:38:43;;;;;;;7.65;3.90;;;;;;;16.26;83.73;100029.02;124998;1092;64333;-79
2021/08/16 05:41:10;;;;;;;7.67;4.40;;;;;;;16.30;83.75;100026.70;125068;1093;64301;-80
2021/08/16 05:43:37;;;;;;;12.37;3.80;;;;;;;16.33;83.72;100028.10;124929;1092;64304;-79
2021/08/16 05:46:04;;;;;;;12.90;4.20;;;;;;;16.34;83.08;100027.85;124897;1093;64786;-79
2021/08/16 05:48:31;;;;;;;7.20;3.20;;;;;;;16.36;83.04;100020.41;124885;1093;64403;-81
2021/08/16 05:50:58;;;;;;;9.00;4.10;;;;;;;16.42;82.65;100037.42;124971;1092;64381;-79
2021/08/16 05:53:25;;;;;;;8.80;3.47;;;;;;;16.48;82.49;100033.83;124855;1093;64302;-79
2021/08/16 05:55:52;;;;;;;7.55;4.15;;;;;;;16.57;81.81;100043.16;124858;1093;64301;-79
2021/08/16 05:58:19;;;;;;;9.23;4.43;;;;;;;16.62;81.29;100008.48;124795;1093;64307;-79
2021/08/16 06:00:46;;;;;;;10.17;4.73;;;;;;;16.69;81.22;100003.02;124914;1092;64307;-78
2021/08/16 06:03:13;;;;;;;5.73;3.47;;;;;;;16.85;80.95;100013.07;124892;1093;64255;-78
2021/08/16 06:05:41;;;;;;;11.10;5.27;;;;;;;16.96;80.31;100024.00;125068;1092;64284;-78
2021/08/16 06:08:08;;;;;;;8.50;4.93;;;;;;;17.09;79.82;100011.19;125610;1093;64224;-80
2021/08/16 06:10:35;;;;;;;8.10;5.93;;;;;;;17.20;78.90;100016.77;125112;1093;64241;-78
2021/08/16 06:13:02;;;;;;;10.60;4.95;;;;;;;17.30;78.98;99998.23;124916;1092;64216;-78
2021/08/16 06:15:29;;;;;;;9.27;5.53;;;;;;;17.34;78.19;100004.75;124967;1091;64384;-79
2021/08/16 06:17:57;;;;;;;10.13;6.03;;;;;;;17.42;77.88;100007.04;124931;1093;64285;-77
2021/08/16 06:20:24;;;;;;;9.50;4.77;;;;;;;17.50;77.30;99998.63;124970;1092;64310;-78
2021/08/16 06:22:51;;;;;;;7.43;4.17;;;;;;;17.61;77.36;99988.91;124874;1092;64397;-78
2021/08/16 06:25:18;;;;;;;11.30;6.13;;;;;;;17.77;75.99;100003.45;124889;1093;64377;-78
2021/08/16 06:27:45;;;;;;;10.53;5.70;;;;;;;17.95;76.03;100005.14;124900;1093;64314;-78
2021/08/16 06:30:12;;;;;;;6.63;4.60;;;;;;;18.00;74.77;99991.84;124939;1093;64285;-78
2021/08/16 06:32:40;;;;;;;9.00;4.97;;;;;;;18.09;74.60;99994.94;125069;1093;64696;-78
2021/08/16 06:35:07;;;;;;;10.50;5.53;;;;;;;18.11;74.08;99992.83;125000;1092;65313;-78
2021/08/16 06:37:35;;;;;;;9.53;6.20;;;;;;;18.10;74.23;99991.19;124967;1092;64288;-78
2021/08/16 06:40:02;;;;;;;6.57;5.13;;;;;;;18.07;73.62;99991.68;124753;1092;64290;-78
2021/08/16 06:42:30;;;;;;;8.05;4.95;;;;;;;18.05;74.07;99991.91;125117;1093;64217;-78
2021/08/16 06:44:57;;;;;;;12.70;5.57;;;;;;;18.06;75.03;100001.61;125905;1093;64381;-78
2021/08/16 06:47:25;;;;;;;11.37;6.10;;;;;;;18.08;75.14;99995.98;125072;1093;64339;-79
2021/08/16 06:49:52;;;;;;;8.00;5.10;;;;;;;18.13;75.50;100017.55;124984;1093;64288;-79
2021/08/16 06:52:19;;;;;;;7.03;3.90;;;;;;;18.06;73.06;99993.56;125003;1091;64304;-79
2021/08/16 06:54:46;;;;;;;6.57;3.70;;;;;;;18.07;73.35;99986.31;125022;1093;64393;-80
2021/08/16 06:57:13;;;;;;;10.67;5.50;;;;;;;18.04;72.86;99986.78;125324;1093;64303;-80
2021/08/16 06:59:40;;;;;;;11.60;4.90;;;;;;;18.04;73.42;99992.14;125600;1092;64358;-79
2021/08/16 07:02:08;;;;;;;7.87;4.20;;;;;;;18.09;73.96;100000.30;125152;1091;64297;-79
2021/08/16 07:04:39;;;;;;;8.33;3.40;;;;;;;18.13;73.74;100004.14;125101;1091;64307;-79
2021/08/16 07:07:06;;;;;;;7.00;4.20;;;;;;;18.14;73.39;100003.06;124932;1093;65386;-77
2021/08/16 07:09:33;;;;;;;10.50;4.40;;;;;;;18.18;73.73;100004.21;125027;1093;65401;-80
2021/08/16 07:12:00;;;;;;;7.27;4.70;;;;;;;18.24;72.68;100003.25;124905;1093;64294;-79
2021/08/16 07:14:27;;;;;;;12.10;5.10;;;;;;;18.17;71.79;100010.66;124938;1093;64291;-79
2021/08/16 07:16:54;;;;;;;12.13;3.80;;;;;;;18.12;71.97;100007.86;124925;1091;64335;-78
2021/08/16 07:19:21;;;;;;;11.03;4.70;;;;;;;18.16;71.76;100006.33;126081;1092;64285;-80
2021/08/16 07:21:48;;;;;;;11.10;6.80;;;;;;;18.22;71.70;100016.09;125398;1093;64468;-75
2021/08/16 07:24:16;;;;;;;9.40;5.80;;;;;;;18.28;72.17;100012.45;124702;1093;64313;-75
2021/08/16 07:26:43;;;;;;;10.77;5.73;;;;;;;18.40;72.20;100011.55;124805;1093;64314;-75
2021/08/16 07:29:10;;;;;;;13.07;6.13;;;;;;;18.41;71.16;100014.00;124750;1092;64218;-75
2021/08/16 07:31:37;;;;;;;10.93;4.60;;;;;;;18.50;71.29;100011.72;124765;1093;64259;-75
2021/08/16 07:34:04;;;;;;;8.60;5.47;;;;;;;18.56;71.16;100010.75;124771;1093;64326;-75
2021/08/16 07:36:31;;;;;;;16.17;9.47;;;;;;;18.64;70.58;100007.66;124684;1093;64419;-75
2021/08/16 07:38:58;;;;;;;19.75;11.20;;;;;;;18.77;70.17;100008.39;124686;1093;64282;-76
2021/08/16 07:41:25;;;;;;;13.10;4.63;;;;;;;18.84;70.54;100017.12;124684;1093;64214;-75
2021/08/16 07:43:52;;;;;;;10.53;4.80;;;;;;;18.85;69.80;100014.19;124700;1093;64251;-75
2021/08/16 07:46:19;;;;;;;13.63;5.83;;;;;;;18.90;67.91;100011.56;124734;1093;64288;-74
2021/08/16 07:48:46;;;;;;;7.17;4.47;;;;;;;18.85;67.89;100018.73;124740;1093;64294;-75
2021/08/16 07:51:13;;;;;;;7.77;4.93;;;;;;;18.83;68.52;100020.84;124678;1093;64215;-75
2021/08/16 07:53:43;;;;;;;9.33;4.30;;;;;;;18.81;67.97;100004.19;124693;1093;64284;-76
2021/08/16 07:56:10;;;;;;;12.43;6.03;;;;;;;18.93;68.53;100015.63;124617;1093;64410;-74
2021/08/16 07:58:37;;;;;;;14.93;8.43;;;;;;;19.00;67.22;100023.52;124654;1092;64311;-75
2021/08/16 08:01:04;;;;;;;8.20;4.80;;;;;;;18.92;67.15;100024.77;124705;1092;64316;-75
2021/08/16 08:03:31;;;;;;;15.13;5.27;;;;;;;18.80;67.64;100032.09;124616;1093;64349;-76
2021/08/16 08:05:59;;;;;;;9.43;4.33;;;;;;;18.63;68.09;100038.25;124765;1093;64202;-75
2021/08/16 08:08:26;;;;;;;8.70;4.85;;;;;;;18.62;68.56;100036.64;124693;1093;64291;-74
2021/08/16 08:10:53;;;;;;;9.10;4.27;;;;;;;18.76;68.42;100034.42;124739;1093;64284;-74
2021/08/16 08:13:20;;;;;;;9.77;5.30;;;;;;;18.98;68.57;100034.53;124680;1093;64362;-75
2021/08/16 08:15:47;;;;;;;8.03;3.70;;;;;;;19.17;66.56;100031.55;125099;1093;64291;-78
2021/08/16 08:18:14;;;;;;;10.43;5.27;;;;;;;19.18;66.70;100034.00;124682;1093;64291;-75
2021/08/16 08:20:41;;;;;;;10.40;5.10;;;;;;;19.10;66.49;100040.59;124926;1092;64564;-75
2021/08/16 08:23:09;;;;;;;14.70;5.30;;;;;;;19.14;66.50;100049.80;124746;1093;64314;-74
2021/08/16 08:25:39;;;;;;;10.37;5.20;;;;;;;19.20;66.47;100037.25;125040;1093;64412;-73
2021/08/16 08:28:17;;;;;;;8.63;5.40;;;;;;;19.26;66.60;100090.05;125550;1093;64324;-75
2021/08/16 08:30:46;;;;;;;9.70;5.73;;;;;;;19.51;65.34;100054.61;124705;1093;64330;-75
2021/08/16 08:33:15;;;;;;;9.33;4.30;;;;;;;19.74;65.40;100041.98;124842;1092;64300;-72
2021/08/16 08:35:47;;;;;;;12.40;5.93;;;;;;;19.92;64.33;100044.35;124811;1093;64285;-74
2021/08/16 08:38:15;;;;;;;9.30;5.45;;;;;;;19.89;63.34;100044.03;124717;1093;64357;-74
2021/08/16 08:40:44;;;;;;;9.80;5.23;;;;;;;19.83;63.92;100045.06;124674;1093;64242;-73
2021/08/16 08:43:12;;;;;;;8.97;5.20;;;;;;;19.54;63.25;100048.72;124913;1093;64288;-74
2021/08/16 08:45:42;;;;;;;8.07;5.23;;;;;;;19.42;64.05;100053.40;124742;1093;64304;-73
2021/08/16 08:48:10;;;;;;;13.37;5.93;;;;;;;19.15;64.82;100056.82;127510;1093;64284;-76
2021/08/16 08:50:38;;;;;;;12.87;5.27;;;;;;;19.14;64.83;100022.91;124564;1093;64744;-74
2021/08/16 08:53:05;;;;;;;14.40;5.77;;;;;;;19.23;64.68;100055.59;124585;1093;64285;-74
2021/08/16 08:55:32;;;;;;;11.00;6.20;;;;;;;19.38;64.88;100054.98;124654;1093;64379;-73
2021/08/16 08:58:18;;;;;;;9.25;5.05;;;;;;;19.53;65.07;100048.99;124715;1093;64293;-74
2021/08/16 09:00:46;;;;;;;8.07;5.33;;;;;;;19.58;63.80;100059.00;124596;1094;65381;-73
2021/08/16 09:03:13;;;;;;;11.93;6.20;;;;;;;19.57;63.01;100044.71;124818;1093;64422;-74
2021/08/16 09:05:50;;;;;;;13.73;7.00;;;;;;;19.78;64.10;100037.73;124717;1092;64307;-74
2021/08/16 09:08:26;;;;;;;10.33;5.90;;;;;;;19.92;63.02;100041.66;124878;1093;64288;-75
2021/08/16 09:11:14;;;;;;;10.07;5.43;;;;;;;19.95;61.91;100046.55;124831;1093;64258;-75
2021/08/16 09:13:55;;;;;;;9.07;5.50;;;;;;;20.05;62.44;100045.02;124684;1093;64298;-73
2021/08/16 09:16:27;;;;;;;11.10;6.50;;;;;;;20.12;61.88;100026.78;124717;1093;64432;-73
2021/08/16 09:18:55;;;;;;;10.93;4.57;;;;;;;20.17;62.03;100045.69;124724;1093;64288;-74
2021/08/16 09:21:27;;;;;;;7.30;4.30;;;;;;;20.18;62.06;100054.58;124710;1093;64288;-73
2021/08/16 09:23:57;;;;;;;6.97;4.70;;;;;;;20.16;61.43;100055.63;124634;1093;64212;-74
2021/08/16 09:26:28;;;;;;;11.05;5.45;;;;;;;20.12;61.70;100064.47;124748;1092;64265;-72
2021/08/16 09:29:16;;;;;;;7.60;5.13;;;;;;;20.08;61.70;100041.81;124692;1093;64611;-73
2021/08/16 09:32:04;;;;;;;10.47;5.10;;;;;;;19.89;62.14;100055.63;124831;1093;64285;-73
2021/08/16 09:34:48;;;;;;;8.77;4.77;;;;;;;19.81;62.22;100058.77;124680;1094;64384;-74
2021/08/16 09:37:25;;;;;;;6.80;4.45;;;;;;;19.58;62.25;100038.28;124732;1093;64288;-73
2021/08/16 09:40:06;;;;;;;9.83;4.77;;;;;;;19.50;63.17;100036.83;124744;1092;64304;-73
2021/08/16 09:42:58;;;;;;;10.60;4.73;;;;;;;19.47;63.71;100056.17;124672;1093;64361;-76
2021/08/16 09:45:34;;;;;;;9.00;5.77;;;;;;;19.38;63.52;100046.92;124731;1093;64282;-74
2021/08/16 09:48:04;;;;;;;8.80;5.37;;;;;;;19.35;63.50;100047.40;124749;1093;64262;-74
2021/08/16 09:50:46;;;;;;;8.15;5.35;;;;;;;19.34;64.40;100049.28;124935;1093;64300;-74
2021/08/16 09:53:16;;;;;;;9.70;4.70;;;;;;;19.40;64.43;100050.14;124720;1093;64285;-74
2021/08/16 09:55:47;;;;;;;9.53;4.60;;;;;;;19.41;64.50;100062.55;124870;1093;64381;-74
2021/08/16 09:58:16;;;;;;;8.40;4.63;;;;;;;19.39;64.08;100043.16;124848;1093;64410;-76
2021/08/16 10:00:50;;;;;;;11.27;5.23;;;;;;;19.41;64.63;100043.72;124662;1093;64374;-76
2021/08/16 10:03:18;;;;;;;8.70;4.55;;;;;;;19.37;64.46;100050.66;125244;1093;64335;-78
2021/08/16 10:05:49;;;;;;;7.27;4.67;;;;;;;19.34;64.52;100053.86;124826;1093;64285;-74
2021/08/16 10:08:22;;;;;;;11.75;4.30;;;;;;;19.32;64.68;100064.05;127342;1093;64212;-74
2021/08/16 10:10:53;;;;;;;8.03;4.73;;;;;;;19.30;64.68;100048.16;124813;1093;64304;-75
2021/08/16 10:13:21;;;;;;;8.40;5.53;;;;;;;19.31;65.02;100048.95;124823;1093;64236;-75
2021/08/16 10:15:57;;;;;;;8.80;4.83;;;;;;;19.28;64.89;100044.89;124725;1093;64284;-75
2021/08/16 10:18:28;;;;;;;8.53;4.90;;;;;;;19.26;65.22;100046.21;124753;1092;64237;-74
2021/08/16 10:20:55;;;;;;;9.37;4.97;;;;;;;19.21;64.23;100078.39;124688;1093;64176;-74
2021/08/16 10:23:24;;;;;;;9.97;4.23;;;;;;;19.10;64.89;100054.04;124701;1093;64814;-74
2021/08/16 10:25:56;;;;;;;13.27;4.93;;;;;;;18.97;64.71;100054.39;124787;1092;64319;-74
2021/08/16 10:28:29;;;;;;;10.60;4.07;;;;;;;18.89;65.61;100041.37;128032;1092;62394;-76
2021/08/16 10:30:58;;;;;;;7.83;4.23;;;;;;;18.90;65.52;100043.01;128457;1093;62176;-73
2021/08/16 10:33:25;;;;;;;11.33;4.27;;;;;;;18.98;65.58;100034.53;126606;1093;64351;-73
2021/08/16 10:35:54;;;;;;;6.00;3.60;;;;;;;19.06;64.79;100030.59;124669;1093;64298;-75
2021/08/16 10:38:52;;;;;;;10.13;4.37;;;;;;;19.06;64.61;100020.67;124649;1092;64345;-75
2021/08/16 10:41:28;;;;;;;9.40;4.63;;;;;;;19.03;65.68;100018.47;124644;1093;64278;-74
2021/08/16 10:43:57;;;;;;;9.23;4.60;;;;;;;19.02;65.11;100005.27;124643;1093;64291;-73
2021/08/16 10:46:24;;;;;;;11.15;4.40;;;;;;;19.02;64.81;100002.58;124792;1093;64440;-73
2021/08/16 10:49:04;;;;;;;8.40;3.83;;;;;;;19.10;65.20;100021.78;124726;1092;64873;-75
2021/08/16 10:51:39;;;;;;;6.27;3.13;;;;;;;19.19;66.08;100024.05;124690;1092;64304;-75
2021/08/16 10:54:06;;;;;;;4.13;2.40;;;;;;;19.12;67.52;100029.61;124753;1093;64237;-74
2021/08/16 10:56:35;;;;;;;11.00;3.50;;;;;;;18.94;68.93;100071.83;124671;1093;64342;-74
2021/08/16 10:59:02;;;;;;;11.73;4.57;;;;;;;18.68;70.77;100041.04;124841;1093;64211;-74
2021/08/16 11:01:35;;;;;;;6.83;3.10;;;;;;;18.43;72.42;100027.20;124667;1092;64315;-74
2021/08/16 11:04:32;;;;;;;7.60;3.83;;;;;;;17.95;75.64;100042.71;124749;1093;64296;-74
2021/08/16 11:07:02;;;;;;;7.83;4.10;;;;;;;17.32;80.96;100055.11;124875;1093;64284;-73
2021/08/16 11:09:34;;;;;;;10.35;5.95;;;;;;;16.82;83.70;100044.86;124715;1093;65372;-72
2021/08/16 11:12:10;;;;;;;16.43;7.07;;;;;;;16.51;85.24;100055.62;124705;1093;64426;-72
2021/08/16 11:14:45;;;;;;;12.33;7.07;;;;;;;16.24;88.05;100054.38;124737;1093;64326;-71
2021/08/16 11:17:12;;;;;;;18.00;10.50;;;;;;;16.13;89.31;100044.43;124678;1092;64300;-72
2021/08/16 11:19:47;;;;;;;17.17;9.33;;;;;;;16.03;90.64;100050.34;124741;1093;64323;-72
2021/08/16 11:22:16;;;;;;;13.40;7.93;;;;;;;15.96;91.93;100042.41;124724;1093;64307;-72
2021/08/16 11:24:47;;;;;;;15.00;7.10;;;;;;;15.88;92.74;100051.55;124753;1093;64380;-72